createdAt,value
2023-04-27T00:02:12.829Z,65.37
2023-04-27T00:04:40.772Z,65.36
2023-04-27T00:07:09.156Z,65.86
2023-04-27T00:09:36.772Z,65.87
2023-04-27T00:12:04.581Z,65.38
2023-04-27T00:14:32.240Z,65.73
2023-04-27T00:16:59.928Z,65.54
2023-04-27T00:19:30.522Z,65.97
2023-04-27T00:22:00.097Z,65.77
2023-04-27T00:24:27.903Z,65.47
2023-04-27T00:26:55.574Z,65.41
2023-04-27T00:29:23.341Z,65.37
2023-04-27T00:31:50.947Z,65.60
2023-04-27T00:34:18.599Z,65.42
2023-04-27T00:36:47.622Z,65.56
2023-04-27T00:39:15.517Z,65.05
2023-04-27T00:41:43.465Z,65.29
2023-04-27T00:44:11.268Z,65.04
2023-04-27T00:46:38.990Z,65.25
2023-04-27T00:49:06.609Z,65.44
2023-04-27T00:51:34.330Z,65.24
2023-04-27T00:54:03.620Z,65.40
2023-04-27T00:56:31.876Z,65.56
2023-04-27T00:58:59.861Z,65.15
2023-04-27T01:01:27.700Z,65.17
2023-04-27T01:03:55.924Z,65.40
2023-04-27T01:06:23.874Z,65.40
2023-04-27T01:08:51.554Z,65.66
2023-04-27T01:11:21.680Z,65.23
2023-04-27T01:13:49.409Z,65.39
2023-04-27T01:16:18.610Z,65.68
2023-04-27T01:18:46.870Z,65.39
2023-04-27T01:21:14.558Z,65.48
2023-04-27T01:23:44.328Z,65.46
2023-04-27T01:26:16.515Z,65.24
2023-04-27T01:28:44.217Z,65.38
2023-04-27T01:31:12.513Z,65.03
2023-04-27T01:33:40.566Z,65.30
2023-04-27T01:36:09.383Z,65.26
2023-04-27T01:38:37.254Z,65.49
2023-04-27T01:41:09.017Z,65.63
2023-04-27T01:43:37.159Z,65.69
2023-04-27T01:46:08.529Z,65.40
2023-04-27T01:48:36.402Z,65.43
2023-04-27T01:51:04.441Z,65.79
2023-04-27T01:53:32.156Z,65.60
2023-04-27T01:56:00.377Z,65.30
2023-04-27T01:58:29.420Z,65.30
2023-04-27T02:00:57.116Z,65.01
2023-04-27T02:03:25.014Z,65.43
2023-04-27T02:05:52.898Z,65.66
2023-04-27T02:08:20.959Z,65.71
2023-04-27T02:10:48.709Z,65.74
2023-04-27T02:13:16.411Z,66.05
2023-04-27T02:15:45.578Z,65.87
2023-04-27T02:18:14.333Z,65.69
2023-04-27T02:20:42.139Z,65.76
2023-04-27T02:23:09.895Z,65.84
2023-04-27T02:25:37.921Z,65.67
2023-04-27T02:28:05.730Z,65.05
2023-04-27T02:30:33.865Z,65.35
2023-04-27T02:33:02.959Z,65.41
2023-04-27T02:35:32.483Z,65.12
2023-04-27T02:38:00.170Z,65.15
2023-04-27T02:40:27.756Z,65.19
2023-04-27T02:42:55.553Z,65.05
2023-04-27T02:45:23.242Z,64.96
2023-04-27T02:47:51.339Z,64.88
2023-04-27T02:50:20.599Z,65.10
2023-04-27T02:52:48.338Z,64.88
2023-04-27T02:55:17.237Z,65.21
2023-04-27T02:57:45.193Z,65.08
2023-04-27T03:00:13.904Z,65.18
2023-04-27T03:02:41.708Z,65.16
2023-04-27T03:05:11.128Z,65.20
2023-04-27T03:07:40.282Z,65.39
2023-04-27T03:10:08.786Z,65.51
2023-04-27T03:12:36.488Z,65.44
2023-04-27T03:15:05.059Z,65.33
2023-04-27T03:17:32.668Z,64.77
2023-04-27T03:20:00.651Z,64.85
2023-04-27T03:22:28.331Z,64.94
2023-04-27T03:24:57.616Z,64.75
2023-04-27T03:27:25.407Z,64.91
2023-04-27T03:29:53.871Z,65.01
2023-04-27T03:32:21.684Z,65.28
2023-04-27T03:34:49.392Z,65.21
2023-04-27T03:37:17.493Z,65.26
2023-04-27T03:39:45.566Z,65.13
2023-04-27T03:42:14.597Z,65.13
2023-04-27T03:44:42.229Z,65.03
2023-04-27T03:47:10.493Z,65.21
2023-04-27T03:49:38.160Z,65.14
2023-04-27T03:52:06.005Z,65.55
2023-04-27T03:54:33.680Z,65.93
2023-04-27T03:57:02.597Z,65.42
2023-04-27T03:59:31.829Z,65.25
2023-04-27T04:02:01.073Z,65.15
2023-04-27T04:04:29.389Z,65.55
2023-04-27T04:06:57.178Z,65.51
2023-04-27T04:09:24.916Z,65.75
2023-04-27T04:11:52.874Z,65.14
2023-04-27T04:14:20.654Z,65.32
2023-04-27T04:16:49.652Z,65.49
2023-04-27T04:19:17.314Z,65.70
2023-04-27T04:21:44.997Z,65.74
2023-04-27T04:24:12.649Z,65.46
2023-04-27T04:26:40.319Z,65.21
2023-04-27T04:29:10.714Z,65.32
2023-04-27T04:31:38.827Z,65.50
2023-04-27T04:34:08.629Z,65.49
2023-04-27T04:36:36.252Z,65.71
2023-04-27T04:39:04.271Z,65.86
2023-04-27T04:41:32.396Z,66.00
2023-04-27T04:44:00.655Z,66.07
2023-04-27T04:46:28.583Z,66.13
2023-04-27T04:48:56.361Z,65.94
2023-04-27T04:51:25.470Z,66.14
2023-04-27T04:53:53.131Z,66.21
2023-04-27T04:56:21.247Z,66.34
2023-04-27T04:58:49.025Z,66.37
2023-04-27T05:01:16.689Z,66.64
2023-04-27T05:03:44.603Z,66.67
2023-04-27T05:06:12.300Z,67.02
2023-04-27T05:08:41.326Z,67.08
2023-04-27T05:11:08.983Z,67.24
2023-04-27T05:13:38.289Z,67.38
2023-04-27T05:16:06.505Z,67.40
2023-04-27T05:18:34.525Z,67.78
2023-04-27T05:21:02.302Z,67.99
2023-04-27T05:23:30.041Z,68.00
2023-04-27T05:25:59.162Z,67.83
2023-04-27T05:28:26.967Z,67.92
2023-04-27T05:30:54.586Z,68.40
2023-04-27T05:33:22.196Z,68.78
2023-04-27T05:35:49.914Z,69.43
2023-04-27T05:38:17.689Z,68.89
2023-04-27T05:40:45.428Z,68.68
2023-04-27T05:43:14.658Z,68.91
2023-04-27T05:45:42.378Z,69.03
2023-04-27T05:48:10.110Z,69.58
2023-04-27T05:50:37.811Z,69.83
2023-04-27T05:53:06.160Z,69.86
2023-04-27T05:55:33.811Z,69.91
2023-04-27T05:58:08.242Z,70.03
2023-04-27T06:00:38.315Z,69.96
2023-04-27T06:03:06.203Z,70.39
2023-04-27T06:05:35.001Z,70.39
2023-04-27T06:08:02.958Z,70.45
2023-04-27T06:10:30.708Z,70.05
2023-04-27T06:12:58.409Z,70.16
2023-04-27T06:15:26.070Z,70.00
2023-04-27T06:17:55.219Z,70.31
2023-04-27T06:20:23.380Z,70.25
2023-04-27T06:22:51.177Z,69.50
2023-04-27T06:25:18.881Z,70.19
2023-04-27T06:27:46.552Z,70.21
2023-04-27T06:30:14.574Z,69.90
2023-04-27T06:32:42.268Z,69.93
2023-04-27T06:35:12.004Z,69.21
2023-04-27T06:37:39.653Z,68.92
2023-04-27T06:40:08.248Z,69.26
2023-04-27T06:42:36.321Z,69.54
2023-04-27T06:45:04.717Z,67.94
2023-04-27T06:47:32.519Z,68.65
2023-04-27T06:50:00.563Z,69.04
2023-04-27T06:52:29.686Z,68.83
2023-04-27T06:54:57.513Z,69.01
2023-04-27T06:57:25.192Z,68.85
2023-04-27T06:59:53.042Z,68.41
2023-04-27T07:02:20.793Z,68.56
2023-04-27T07:04:48.774Z,66.97
2023-04-27T07:07:18.884Z,66.90
2023-04-27T07:09:47.906Z,66.05
2023-04-27T07:12:15.758Z,66.95
2023-04-27T07:14:43.473Z,66.38
2023-04-27T07:17:11.221Z,65.71
2023-04-27T07:19:38.891Z,65.37
2023-04-27T07:22:06.646Z,65.62
2023-04-27T07:24:34.316Z,66.31
2023-04-27T07:27:04.131Z,67.05
2023-04-27T07:29:32.345Z,65.82
2023-04-27T07:32:00.476Z,64.60
2023-04-27T07:34:35.026Z,65.95
2023-04-27T07:37:09.393Z,63.53
2023-04-27T07:39:37.580Z,62.19
2023-04-27T07:42:06.856Z,62.25
2023-04-27T07:44:34.551Z,62.11
2023-04-27T07:47:03.571Z,62.15
2023-04-27T07:49:31.271Z,62.57
2023-04-27T07:51:58.995Z,61.58
2023-04-27T07:54:26.856Z,62.22
2023-04-27T07:56:54.884Z,60.19
2023-04-27T07:59:24.103Z,60.82
2023-04-27T08:01:51.803Z,58.27
2023-04-27T08:04:19.887Z,56.09
2023-04-27T08:06:48.054Z,56.07
2023-04-27T08:09:16.046Z,56.79
2023-04-27T08:11:43.841Z,58.92
2023-04-27T08:14:13.622Z,58.70
2023-04-27T08:16:43.948Z,57.07
2023-04-27T08:19:12.148Z,56.32
2023-04-27T08:21:40.394Z,55.96
2023-04-27T08:24:08.127Z,55.66
2023-04-27T08:26:35.851Z,55.47
2023-04-27T08:29:15.384Z,55.32
2023-04-27T08:31:49.024Z,53.67
2023-04-27T08:34:17.722Z,52.84
2023-04-27T08:36:45.409Z,54.60
2023-04-27T08:39:13.216Z,55.12
2023-04-27T08:41:43.531Z,52.58
2023-04-27T08:44:11.292Z,52.50
2023-04-27T08:46:39.592Z,52.87
2023-04-27T08:49:09.924Z,51.51
2023-04-27T08:51:37.924Z,51.95
2023-04-27T08:54:05.722Z,51.56
2023-04-27T08:56:33.428Z,53.14
2023-04-27T08:59:02.144Z,53.46
2023-04-27T09:01:29.861Z,51.40
2023-04-27T09:03:58.333Z,50.17
2023-04-27T09:06:34.675Z,49.23
2023-04-27T09:09:02.852Z,50.70
2023-04-27T09:11:31.499Z,50.28
2023-04-27T09:14:00.398Z,48.28
2023-04-27T09:16:29.326Z,49.81
2023-04-27T09:18:58.012Z,49.57
2023-04-27T09:21:25.918Z,48.80
2023-04-27T09:23:55.171Z,49.97
2023-04-27T09:26:24.139Z,49.06
2023-04-27T09:28:54.438Z,46.95
2023-04-27T09:31:22.776Z,49.32
2023-04-27T09:33:56.301Z,49.35
2023-04-27T09:36:24.507Z,48.86
2023-04-27T09:38:52.883Z,50.89
2023-04-27T09:41:21.935Z,48.28
2023-04-27T09:43:50.190Z,48.56
2023-04-27T09:46:17.937Z,48.06
2023-04-27T09:48:45.823Z,48.41
2023-04-27T09:51:16.179Z,47.43
2023-04-27T09:53:48.177Z,48.62
2023-04-27T09:56:29.279Z,48.53
2023-04-27T09:59:07.812Z,47.76
2023-04-27T10:01:40.934Z,47.37
2023-04-27T10:04:24.273Z,48.32
2023-04-27T10:07:00.480Z,48.05
2023-04-27T10:09:30.526Z,43.85
2023-04-27T10:12:14.975Z,43.90
2023-04-27T10:14:52.791Z,46.86
2023-04-27T10:17:24.673Z,46.75
2023-04-27T10:19:58.452Z,45.21
2023-04-27T10:22:38.544Z,45.82
2023-04-27T10:25:14.816Z,44.98
2023-04-27T10:27:43.941Z,44.54
2023-04-27T10:30:12.782Z,46.11
2023-04-27T10:32:51.865Z,43.29
2023-04-27T10:35:20.901Z,44.43
2023-04-27T10:37:48.865Z,44.61
2023-04-27T10:40:19.029Z,42.94
2023-04-27T10:42:49.637Z,43.33
2023-04-27T10:45:31.199Z,44.74
2023-04-27T10:48:01.843Z,46.74
2023-04-27T10:50:29.831Z,44.02
2023-04-27T10:53:01.636Z,46.35
2023-04-27T10:55:29.667Z,45.65
2023-04-27T10:57:59.182Z,45.04
2023-04-27T11:00:28.450Z,41.95
2023-04-27T11:02:57.239Z,41.95
2023-04-27T11:05:28.820Z,43.65
2023-04-27T11:08:06.594Z,42.58
2023-04-27T11:10:35.716Z,45.58
2023-04-27T11:13:10.115Z,43.99
2023-04-27T11:15:48.895Z,44.02
2023-04-27T11:18:17.387Z,41.97
2023-04-27T11:20:46.100Z,40.86
2023-04-27T11:23:24.176Z,42.45
2023-04-27T11:25:52.469Z,45.57
2023-04-27T11:28:22.375Z,42.59
2023-04-27T11:30:57.173Z,43.57
2023-04-27T11:33:25.009Z,42.72
2023-04-27T11:35:52.651Z,42.38
2023-04-27T11:38:21.927Z,41.57
2023-04-27T11:41:00.587Z,42.82
2023-04-27T11:43:29.927Z,45.39
2023-04-27T11:45:58.294Z,41.74
2023-04-27T11:48:26.978Z,42.95
2023-04-27T11:50:54.671Z,43.44
2023-04-27T11:53:30.621Z,43.31
2023-04-27T11:56:01.145Z,43.23
2023-04-27T11:58:30.974Z,43.33
2023-04-27T12:00:58.972Z,42.68
2023-04-27T12:03:27.269Z,43.83
2023-04-27T12:05:55.252Z,41.08
2023-04-27T12:08:23.069Z,42.66
2023-04-27T12:10:50.993Z,39.84
2023-04-27T12:13:18.665Z,41.98
2023-04-27T12:15:47.756Z,41.06
2023-04-27T12:18:15.592Z,42.45
2023-04-27T12:20:43.335Z,39.85
2023-04-27T12:23:11.147Z,40.69
2023-04-27T12:25:41.031Z,41.71
2023-04-27T12:28:08.883Z,39.33
2023-04-27T12:30:36.902Z,39.38
2023-04-27T12:33:10.897Z,38.41
2023-04-27T12:35:38.920Z,38.37
2023-04-27T12:38:07.129Z,37.09
2023-04-27T12:40:35.184Z,37.75
2023-04-27T12:43:02.886Z,36.93
2023-04-27T12:45:30.622Z,38.40
2023-04-27T12:48:03.831Z,40.06
2023-04-27T12:50:33.843Z,38.65
2023-04-27T12:53:01.488Z,38.18
2023-04-27T12:55:33.566Z,38.64
2023-04-27T12:58:01.993Z,40.49
2023-04-27T13:00:30.165Z,38.60
2023-04-27T13:02:58.390Z,38.22
2023-04-27T13:05:26.457Z,40.73
2023-04-27T13:07:55.553Z,40.00
2023-04-27T13:10:23.268Z,40.17
2023-04-27T13:12:51.154Z,38.91
2023-04-27T13:15:19.233Z,38.04
2023-04-27T13:17:46.971Z,38.53
2023-04-27T13:20:15.411Z,41.07
2023-04-27T13:22:43.453Z,38.87
2023-04-27T13:25:13.211Z,41.42
2023-04-27T13:27:40.966Z,41.68
2023-04-27T13:30:10.205Z,37.82
2023-04-27T13:32:37.995Z,40.83
2023-04-27T13:35:07.660Z,37.94
2023-04-27T13:37:35.550Z,37.54
2023-04-27T13:40:03.398Z,36.12
2023-04-27T13:42:32.484Z,37.19
2023-04-27T13:45:00.892Z,39.02
2023-04-27T13:47:29.971Z,37.17
2023-04-27T13:49:57.663Z,39.31
2023-04-27T13:52:25.370Z,36.62
2023-04-27T13:54:52.980Z,38.51
2023-04-27T13:57:20.629Z,36.57
2023-04-27T13:59:49.650Z,37.81
2023-04-27T14:02:17.361Z,37.91
2023-04-27T14:04:45.075Z,35.49
2023-04-27T14:07:12.831Z,37.39
2023-04-27T14:09:41.033Z,35.74
2023-04-27T14:12:09.323Z,36.33
2023-04-27T14:14:37.425Z,37.66
2023-04-27T14:17:07.010Z,37.42
2023-04-27T14:19:34.790Z,36.78
2023-04-27T14:22:04.468Z,38.13
2023-04-27T14:24:32.168Z,35.51
2023-04-27T14:26:59.843Z,36.10
2023-04-27T14:29:27.463Z,35.91
2023-04-27T14:31:56.027Z,35.72
2023-04-27T14:34:25.545Z,38.42
2023-04-27T14:36:53.299Z,37.78
2023-04-27T14:39:20.946Z,36.06
2023-04-27T14:41:48.588Z,38.70
2023-04-27T14:44:16.325Z,37.35
2023-04-27T14:46:44.077Z,37.17
2023-04-27T14:49:11.959Z,38.41
2023-04-27T14:51:42.755Z,36.13
2023-04-27T14:54:11.274Z,38.24
2023-04-27T14:56:38.918Z,38.07
2023-04-27T14:59:06.582Z,37.45
2023-04-27T15:01:34.385Z,36.14
2023-04-27T15:04:02.210Z,35.23
2023-04-27T15:06:30.409Z,36.28
2023-04-27T15:08:59.463Z,36.55
2023-04-27T15:11:27.190Z,38.01
2023-04-27T15:13:54.837Z,38.25
2023-04-27T15:16:22.560Z,37.13
2023-04-27T15:18:50.249Z,37.47
2023-04-27T15:21:17.920Z,36.78
2023-04-27T15:23:45.597Z,37.21
2023-04-27T15:26:14.648Z,37.56
2023-04-27T15:28:42.352Z,37.36
2023-04-27T15:31:10.221Z,36.77
2023-04-27T15:33:37.958Z,37.23
2023-04-27T15:36:06.091Z,36.87
2023-04-27T15:38:33.793Z,37.77
2023-04-27T15:41:01.503Z,36.69
2023-04-27T15:43:30.942Z,38.27
2023-04-27T15:45:58.557Z,37.39
2023-04-27T15:48:26.289Z,35.36
2023-04-27T15:50:53.912Z,37.80
2023-04-27T15:53:21.795Z,37.67
2023-04-27T15:55:49.485Z,36.69
2023-04-27T15:58:17.150Z,36.81
2023-04-27T16:00:46.316Z,37.32
2023-04-27T16:03:14.453Z,36.92
2023-04-27T16:05:42.321Z,36.52
2023-04-27T16:08:09.986Z,37.07
2023-04-27T16:10:37.670Z,37.62
2023-04-27T16:13:05.425Z,37.61
2023-04-27T16:15:33.312Z,36.93
2023-04-27T16:18:02.423Z,37.56
2023-04-27T16:20:31.650Z,37.15
2023-04-27T16:23:00.056Z,37.53
2023-04-27T16:25:27.835Z,37.78
2023-04-27T16:27:55.609Z,37.60
2023-04-27T16:30:24.255Z,37.95
2023-04-27T16:32:52.867Z,37.28
2023-04-27T16:35:22.142Z,36.30
2023-04-27T16:37:50.612Z,37.05
2023-04-27T16:40:18.435Z,37.70
2023-04-27T16:42:46.055Z,37.61
2023-04-27T16:45:13.767Z,37.48
2023-04-27T16:47:41.916Z,38.64
2023-04-27T16:50:10.659Z,37.81
2023-04-27T16:52:39.701Z,38.90
2023-04-27T16:55:08.349Z,38.04
2023-04-27T16:57:36.150Z,38.49
2023-04-27T17:00:06.014Z,37.93
2023-04-27T17:02:33.835Z,38.23
2023-04-27T17:05:01.802Z,37.82
2023-04-27T17:07:32.847Z,39.85
2023-04-27T17:10:02.053Z,38.08
2023-04-27T17:12:29.861Z,38.27
2023-04-27T17:14:57.619Z,37.85
2023-04-27T17:17:25.377Z,39.59
2023-04-27T17:19:53.395Z,38.99
2023-04-27T17:22:21.122Z,38.71
2023-04-27T17:24:48.783Z,38.67
2023-04-27T17:27:17.875Z,38.88
2023-04-27T17:29:45.602Z,39.51
2023-04-27T17:32:13.387Z,39.49
2023-04-27T17:34:42.982Z,40.46
2023-04-27T17:37:10.912Z,39.39
2023-04-27T17:39:38.811Z,39.49
2023-04-27T17:42:06.809Z,38.56
2023-04-27T17:44:39.334Z,39.41
2023-04-27T17:47:07.058Z,40.00
2023-04-27T17:49:34.988Z,39.10
2023-04-27T17:52:03.150Z,38.98
2023-04-27T17:54:30.942Z,38.58
2023-04-27T17:56:58.814Z,39.33
2023-04-27T17:59:27.537Z,39.84
2023-04-27T18:01:56.627Z,38.93
2023-04-27T18:04:24.405Z,39.41
2023-04-27T18:06:52.305Z,39.84
2023-04-27T18:09:20.142Z,39.32
2023-04-27T18:11:47.850Z,40.79
2023-04-27T18:14:15.532Z,39.91
2023-04-27T18:16:43.570Z,40.52
2023-04-27T18:19:13.108Z,39.61
2023-04-27T18:21:41.311Z,39.54
2023-04-27T18:24:09.360Z,41.37
2023-04-27T18:26:37.213Z,39.47
2023-04-27T18:29:05.253Z,40.12
2023-04-27T18:31:33.058Z,39.57
2023-04-27T18:34:00.706Z,39.65
2023-04-27T18:36:29.781Z,39.52
2023-04-27T18:38:58.139Z,40.12
2023-04-27T18:41:25.940Z,39.85
2023-04-27T18:43:53.642Z,39.26
2023-04-27T18:46:21.857Z,39.81
2023-04-27T18:48:49.579Z,39.52
2023-04-27T18:51:17.276Z,39.42
2023-04-27T18:53:46.296Z,41.32
2023-04-27T18:56:14.791Z,40.52
2023-04-27T18:58:42.566Z,40.82
2023-04-27T19:01:11.027Z,40.42
2023-04-27T19:03:39.286Z,41.27
2023-04-27T19:06:07.161Z,42.52
2023-04-27T19:08:34.880Z,42.18
2023-04-27T19:11:03.941Z,41.87
2023-04-27T19:13:31.602Z,42.69
2023-04-27T19:15:59.560Z,42.00
2023-04-27T19:18:27.778Z,41.76
2023-04-27T19:20:55.674Z,41.39
2023-04-27T19:23:23.403Z,41.50
2023-04-27T19:25:51.863Z,42.03
2023-04-27T19:28:24.337Z,41.56
2023-04-27T19:30:52.515Z,41.41
2023-04-27T19:33:20.704Z,41.74
2023-04-27T19:35:48.689Z,41.87
2023-04-27T19:38:16.427Z,42.10
2023-04-27T19:40:44.086Z,41.68
2023-04-27T19:43:11.998Z,41.91
2023-04-27T19:45:41.936Z,43.64
2023-04-27T19:48:09.682Z,42.16
2023-04-27T19:50:38.647Z,41.60
2023-04-27T19:53:06.292Z,42.16
2023-04-27T19:55:34.154Z,43.80
2023-04-27T19:58:01.912Z,42.55
2023-04-27T20:00:29.613Z,42.45
2023-04-27T20:02:58.830Z,42.79
2023-04-27T20:05:27.040Z,42.35
2023-04-27T20:07:54.756Z,42.28
2023-04-27T20:10:22.678Z,42.41
2023-04-27T20:12:56.592Z,43.14
2023-04-27T20:15:25.166Z,43.06
2023-04-27T20:17:53.009Z,43.40
2023-04-27T20:20:22.461Z,43.15
2023-04-27T20:22:50.160Z,43.55
2023-04-27T20:25:19.555Z,43.19
2023-04-27T20:27:47.668Z,43.08
2023-04-27T20:30:16.048Z,42.61
2023-04-27T20:32:43.747Z,43.43
2023-04-27T20:35:11.802Z,43.24
2023-04-27T20:37:43.448Z,43.23
2023-04-27T20:40:14.438Z,42.83
2023-04-27T20:42:42.505Z,44.02
2023-04-27T20:45:11.405Z,42.82
2023-04-27T20:47:39.246Z,45.13
2023-04-27T20:50:08.055Z,44.71
2023-04-27T20:52:35.884Z,43.95
2023-04-27T20:55:06.327Z,43.86
2023-04-27T20:57:34.031Z,43.99
2023-04-27T21:00:01.904Z,44.87
2023-04-27T21:02:29.657Z,45.14
2023-04-27T21:04:57.492Z,43.68
2023-04-27T21:07:25.212Z,44.66
2023-04-27T21:09:52.864Z,43.86
2023-04-27T21:12:22.756Z,43.37
2023-04-27T21:14:50.487Z,44.16
2023-04-27T21:17:18.140Z,43.91
2023-04-27T21:19:45.972Z,44.22
2023-04-27T21:22:13.599Z,44.24
2023-04-27T21:24:41.349Z,44.13
2023-04-27T21:27:09.036Z,43.80
2023-04-27T21:29:38.174Z,44.78
2023-04-27T21:32:06.154Z,44.27
2023-04-27T21:34:33.825Z,44.99
2023-04-27T21:37:01.543Z,45.47
2023-04-27T21:39:29.430Z,45.02
2023-04-27T21:41:57.112Z,45.08
2023-04-27T21:44:24.771Z,45.49
2023-04-27T21:46:53.833Z,45.21
2023-04-27T21:49:21.568Z,44.30
2023-04-27T21:51:49.224Z,45.21
2023-04-27T21:54:17.134Z,44.62
2023-04-27T21:56:45.071Z,44.78
2023-04-27T21:59:12.773Z,45.17
2023-04-27T22:01:40.556Z,44.77
2023-04-27T22:04:09.830Z,45.31
2023-04-27T22:06:37.998Z,45.70
2023-04-27T22:09:07.727Z,45.29
2023-04-27T22:11:35.870Z,44.30
2023-04-27T22:14:03.583Z,44.05
2023-04-27T22:16:31.243Z,43.92
2023-04-27T22:18:59.627Z,44.09
2023-04-27T22:21:28.873Z,44.91
2023-04-27T22:23:56.609Z,44.81
2023-04-27T22:26:24.509Z,45.25
2023-04-27T22:28:52.256Z,45.60
2023-04-27T22:31:20.044Z,44.64
2023-04-27T22:33:47.724Z,45.50
2023-04-27T22:36:15.459Z,44.57
2023-04-27T22:38:44.570Z,45.00
2023-04-27T22:41:12.355Z,44.50
2023-04-27T22:43:40.129Z,44.58
2023-04-27T22:46:07.812Z,46.13
2023-04-27T22:48:35.509Z,45.25
2023-04-27T22:51:03.150Z,44.74
2023-04-27T22:53:30.838Z,45.38
2023-04-27T22:55:59.958Z,44.73
2023-04-27T22:58:27.703Z,45.62
2023-04-27T23:00:55.323Z,45.63
2023-04-27T23:03:23.206Z,44.17
2023-04-27T23:05:53.546Z,45.22
2023-04-27T23:08:25.013Z,45.03
2023-04-27T23:10:53.531Z,45.23
2023-04-27T23:13:22.556Z,44.25
2023-04-27T23:15:50.255Z,45.20
2023-04-27T23:18:17.944Z,45.12
2023-04-27T23:20:45.689Z,45.98
2023-04-27T23:23:13.354Z,44.42
2023-04-27T23:25:41.111Z,44.94
2023-04-27T23:28:08.759Z,44.44
2023-04-27T23:30:38.084Z,44.97
2023-04-27T23:33:06.021Z,44.93
2023-04-27T23:35:33.904Z,45.62
2023-04-27T23:38:01.564Z,45.03
2023-04-27T23:40:29.237Z,45.17
2023-04-27T23:42:57.210Z,45.25
2023-04-27T23:45:24.985Z,44.76
2023-04-27T23:47:54.104Z,44.61
2023-04-27T23:50:21.910Z,44.83
2023-04-27T23:52:49.800Z,45.65
2023-04-27T23:55:17.755Z,45.04
2023-04-27T23:57:45.538Z,45.41
